sensor_id;sensor_type;location;lat;lon;timestamp;pressure;altitude;pressure_sealevel;temperature;humidity
75447;BME280;64024;55.820;37.574;2023-12-22T00:01:07;96515.59;;;18.34;45.02
75447;BME280;64024;55.820;37.574;2023-12-22T00:03:33;96517.63;;;18.37;44.90
75447;BME280;64024;55.820;37.574;2023-12-22T00:05:59;96515.06;;;18.41;44.66
75447;BME280;64024;55.820;37.574;2023-12-22T00:08:26;96512.06;;;18.42;44.71
75447;BME280;64024;55.820;37.574;2023-12-22T00:10:52;96512.06;;;18.42;44.55
75447;BME280;64024;55.820;37.574;2023-12-22T00:13:17;96511.72;;;18.44;44.41
75447;BME280;64024;55.820;37.574;2023-12-22T00:15:43;96517.91;;;18.44;44.48
75447;BME280;64024;55.820;37.574;2023-12-22T00:18:09;96508.25;;;18.43;44.51
75447;BME280;64024;55.820;37.574;2023-12-22T00:20:34;96509.38;;;18.42;44.40
75447;BME280;64024;55.820;37.574;2023-12-22T00:23:00;96508.59;;;18.42;44.32
75447;BME280;64024;55.820;37.574;2023-12-22T00:25:26;96502.41;;;18.41;44.34
75447;BME280;64024;55.820;37.574;2023-12-22T00:27:52;96505.78;;;18.38;44.39
75447;BME280;64024;55.820;37.574;2023-12-22T00:30:17;96499.59;;;18.37;44.33
75447;BME280;64024;55.820;37.574;2023-12-22T00:32:43;96501.81;;;18.35;44.21
75447;BME280;64024;55.820;37.574;2023-12-22T00:35:09;96495.19;;;18.33;44.34
75447;BME280;64024;55.820;37.574;2023-12-22T00:37:35;96491.25;;;18.30;44.21
75447;BME280;64024;55.820;37.574;2023-12-22T00:40:01;96502.34;;;18.29;44.17
75447;BME280;64024;55.820;37.574;2023-12-22T00:42:29;96496.50;;;18.27;44.19
75447;BME280;64024;55.820;37.574;2023-12-22T00:44:55;96497.13;;;18.24;44.16
75447;BME280;64024;55.820;37.574;2023-12-22T00:47:21;96493.22;;;18.21;44.19
75447;BME280;64024;55.820;37.574;2023-12-22T00:49:47;96496.53;;;18.18;44.25
75447;BME280;64024;55.820;37.574;2023-12-22T00:52:13;96488.34;;;18.14;44.15
75447;BME280;64024;55.820;37.574;2023-12-22T00:54:39;96497.81;;;18.12;44.14
75447;BME280;64024;55.820;37.574;2023-12-22T00:57:04;96485.84;;;18.09;44.17
75447;BME280;64024;55.820;37.574;2023-12-22T00:59:30;96487.25;;;18.07;44.08
75447;BME280;64024;55.820;37.574;2023-12-22T01:01:56;96492.50;;;18.03;44.21
75447;BME280;64024;55.820;37.574;2023-12-22T01:04:22;96483.97;;;18.01;44.18
75447;BME280;64024;55.820;37.574;2023-12-22T01:06:47;96486.19;;;17.99;44.31
75447;BME280;64024;55.820;37.574;2023-12-22T01:09:13;96486.84;;;17.96;44.14
75447;BME280;64024;55.820;37.574;2023-12-22T01:11:40;96482.13;;;17.93;44.16
75447;BME280;64024;55.820;37.574;2023-12-22T01:14:06;96488.13;;;17.90;44.08
75447;BME280;64024;55.820;37.574;2023-12-22T01:16:32;96484.19;;;17.87;44.13
75447;BME280;64024;55.820;37.574;2023-12-22T01:18:58;96493.69;;;17.85;44.19
75447;BME280;64024;55.820;37.574;2023-12-22T01:21:24;96488.16;;;17.81;44.20
75447;BME280;64024;55.820;37.574;2023-12-22T01:23:49;96494.94;;;17.79;44.01
75447;BME280;64024;55.820;37.574;2023-12-22T01:26:15;96489.13;;;17.77;43.93
75447;BME280;64024;55.820;37.574;2023-12-22T01:28:41;96492.41;;;17.74;43.99
75447;BME280;64024;55.820;37.574;2023-12-22T01:31:07;96489.28;;;17.72;44.11
75447;BME280;64024;55.820;37.574;2023-12-22T01:33:32;96476.50;;;17.69;44.26
75447;BME280;64024;55.820;37.574;2023-12-22T01:35:58;96482.19;;;17.67;44.09
75447;BME280;64024;55.820;37.574;2023-12-22T01:38:24;96483.59;;;17.64;44.17
75447;BME280;64024;55.820;37.574;2023-12-22T01:40:50;96479.66;;;17.62;44.09
75447;BME280;64024;55.820;37.574;2023-12-22T01:43:16;96485.34;;;17.60;43.90
75447;BME280;64024;55.820;37.574;2023-12-22T01:45:52;96473.69;;;17.56;44.06
75447;BME280;64024;55.820;37.574;2023-12-22T01:48:18;96475.09;;;17.54;44.04
75447;BME280;64024;55.820;37.574;2023-12-22T01:50:44;96480.34;;;17.50;44.09
75447;BME280;64024;55.820;37.574;2023-12-22T01:53:10;96474.50;;;17.48;43.83
75447;BME280;64024;55.820;37.574;2023-12-22T01:55:36;96474.03;;;17.46;44.06
75447;BME280;64024;55.820;37.574;2023-12-22T01:58:02;96471.66;;;17.45;44.02
75447;BME280;64024;55.820;37.574;2023-12-22T02:00:28;96465.06;;;17.42;44.03
75447;BME280;64024;55.820;37.574;2023-12-22T02:02:54;96466.47;;;17.39;44.01
75447;BME280;64024;55.820;37.574;2023-12-22T02:05:19;96463.28;;;17.37;44.00
75447;BME280;64024;55.820;37.574;2023-12-22T02:07:45;96475.47;;;17.35;44.19
75447;BME280;64024;55.820;37.574;2023-12-22T02:10:11;96465.03;;;17.33;43.90
75447;BME280;64024;55.820;37.574;2023-12-22T02:12:37;96461.13;;;17.31;44.11
75447;BME280;64024;55.820;37.574;2023-12-22T02:15:04;96460.34;;;17.30;44.00
75447;BME280;64024;55.820;37.574;2023-12-22T02:17:43;96459.06;;;17.28;44.14
75447;BME280;64024;55.820;37.574;2023-12-22T02:20:12;96470.13;;;17.26;44.02
75447;BME280;64024;55.820;37.574;2023-12-22T02:22:38;96472.34;;;17.24;44.10
75447;BME280;64024;55.820;37.574;2023-12-22T02:25:04;96459.56;;;17.21;44.16
75447;BME280;64024;55.820;37.574;2023-12-22T02:27:38;96452.94;;;17.19;44.04
75447;BME280;64024;55.820;37.574;2023-12-22T02:30:09;96453.25;;;17.17;44.17
75447;BME280;64024;55.820;37.574;2023-12-22T02:32:40;96455.47;;;17.15;44.00
75447;BME280;64024;55.820;37.574;2023-12-22T02:35:10;96456.56;;;17.14;44.05
75447;BME280;64024;55.820;37.574;2023-12-22T02:37:37;96464.94;;;17.12;44.15
75447;BME280;64024;55.820;37.574;2023-12-22T02:40:05;96457.22;;;17.11;44.08
75447;BME280;64024;55.820;37.574;2023-12-22T02:42:32;96451.38;;;17.09;44.27
75447;BME280;64024;55.820;37.574;2023-12-22T02:44:58;96449.63;;;17.13;43.96
75447;BME280;64024;55.820;37.574;2023-12-22T02:47:24;96451.06;;;17.10;43.99
75447;BME280;64024;55.820;37.574;2023-12-22T02:49:50;96460.84;;;17.06;44.09
75447;BME280;64024;55.820;37.574;2023-12-22T02:52:15;96448.06;;;17.03;44.13
75447;BME280;64024;55.820;37.574;2023-12-22T02:54:41;96450.28;;;17.01;44.14
75447;BME280;64024;55.820;37.574;2023-12-22T02:57:07;96432.59;;;17.00;44.16
75447;BME280;64024;55.820;37.574;2023-12-22T02:59:33;96429.13;;;17.00;44.25
75447;BME280;64024;55.820;37.574;2023-12-22T03:01:59;96435.59;;;16.99;44.24
75447;BME280;64024;55.820;37.574;2023-12-22T03:04:25;96428.66;;;16.98;44.44
75447;BME280;64024;55.820;37.574;2023-12-22T03:06:51;96429.44;;;16.98;44.52
75447;BME280;64024;55.820;37.574;2023-12-22T03:09:17;96424.72;;;16.95;44.80
75447;BME280;64024;55.820;37.574;2023-12-22T03:11:43;96418.56;;;16.95;44.74
75447;BME280;64024;55.820;37.574;2023-12-22T03:14:09;96417.00;;;16.94;44.88
75447;BME280;64024;55.820;37.574;2023-12-22T03:16:35;96419.69;;;16.94;45.29
75447;BME280;64024;55.820;37.574;2023-12-22T03:19:01;96406.59;;;16.92;45.45
75447;BME280;64024;55.820;37.574;2023-12-22T03:21:27;96421.09;;;16.91;45.54
75447;BME280;64024;55.820;37.574;2023-12-22T03:23:53;96422.97;;;16.90;45.87
75447;BME280;64024;55.820;37.574;2023-12-22T03:26:19;96426.78;;;16.89;45.99
75447;BME280;64024;55.820;37.574;2023-12-22T03:28:44;96434.03;;;16.89;46.24
75447;BME280;64024;55.820;37.574;2023-12-22T03:31:10;96430.56;;;16.88;46.29
75447;BME280;64024;55.820;37.574;2023-12-22T03:33:36;96429.78;;;16.88;46.45
75447;BME280;64024;55.820;37.574;2023-12-22T03:36:02;96438.63;;;16.88;46.76
75447;BME280;64024;55.820;37.574;2023-12-22T03:38:27;96427.41;;;16.86;46.80
75447;BME280;64024;55.820;37.574;2023-12-22T03:40:53;96439.69;;;16.87;46.86
75447;BME280;64024;55.820;37.574;2023-12-22T03:43:19;96428.97;;;16.87;46.89
75447;BME280;64024;55.820;37.574;2023-12-22T03:45:45;96426.63;;;16.86;46.87
75447;BME280;64024;55.820;37.574;2023-12-22T03:48:10;96428.53;;;16.85;46.73
75447;BME280;64024;55.820;37.574;2023-12-22T03:50:36;96433.09;;;16.85;46.67
75447;BME280;64024;55.820;37.574;2023-12-22T03:53:02;96424.28;;;16.84;46.72
75447;BME280;64024;55.820;37.574;2023-12-22T03:55:28;96417.31;;;16.83;46.56
75447;BME280;64024;55.820;37.574;2023-12-22T03:57:53;96422.66;;;16.83;46.49
75447;BME280;64024;55.820;37.574;2023-12-22T04:00:19;96411.94;;;16.83;46.31
75447;BME280;64024;55.820;37.574;2023-12-22T04:02:45;96403.09;;;16.83;46.33
75447;BME280;64024;55.820;37.574;2023-12-22T04:05:11;96399.63;;;16.82;46.11
75447;BME280;64024;55.820;37.574;2023-12-22T04:07:37;96392.38;;;16.83;45.97
75447;BME280;64024;55.820;37.574;2023-12-22T04:10:04;96394.59;;;16.81;45.98
75447;BME280;64024;55.820;37.574;2023-12-22T04:12:30;96396.19;;;16.82;45.71
75447;BME280;64024;55.820;37.574;2023-12-22T04:14:56;96376.94;;;16.80;45.85
75447;BME280;64024;55.820;37.574;2023-12-22T04:17:22;96379.28;;;16.81;45.56
75447;BME280;64024;55.820;37.574;2023-12-22T04:19:48;96366.22;;;16.80;45.12
75447;BME280;64024;55.820;37.574;2023-12-22T04:22:13;96365.41;;;16.79;45.41
75447;BME280;64024;55.820;37.574;2023-12-22T04:24:39;96364.63;;;16.79;45.25
75447;BME280;64024;55.820;37.574;2023-12-22T04:27:05;96368.41;;;16.78;45.08
75447;BME280;64024;55.820;37.574;2023-12-22T04:29:31;96371.88;;;16.78;45.16
75447;BME280;64024;55.820;37.574;2023-12-22T04:31:57;96366.84;;;16.77;45.06
75447;BME280;64024;55.820;37.574;2023-12-22T04:34:23;96365.28;;;16.76;45.31
75447;BME280;64024;55.820;37.574;2023-12-22T04:36:49;96363.38;;;16.76;45.14
75447;BME280;64024;55.820;37.574;2023-12-22T04:39:14;96362.59;;;16.76;45.31
75447;BME280;64024;55.820;37.574;2023-12-22T04:41:40;96356.91;;;16.77;45.31
75447;BME280;64024;55.820;37.574;2023-12-22T04:44:06;96357.69;;;16.78;45.25
75447;BME280;64024;55.820;37.574;2023-12-22T04:46:31;96349.00;;;16.81;45.29
75447;BME280;64024;55.820;37.574;2023-12-22T04:48:57;96342.69;;;16.85;45.26
75447;BME280;64024;55.820;37.574;2023-12-22T04:51:23;96333.34;;;16.92;45.44
75447;BME280;64024;55.820;37.574;2023-12-22T04:53:49;96331.75;;;16.99;45.30
75447;BME280;64024;55.820;37.574;2023-12-22T04:56:15;96333.31;;;17.09;45.25
75447;BME280;64024;55.820;37.574;2023-12-22T04:58:41;96334.38;;;17.17;45.21
75447;BME280;64024;55.820;37.574;2023-12-22T05:01:07;96332.13;;;17.27;45.23
75447;BME280;64024;55.820;37.574;2023-12-22T05:03:33;96336.34;;;17.37;45.19
75447;BME280;64024;55.820;37.574;2023-12-22T05:05:59;96335.22;;;17.47;45.14
75447;BME280;64024;55.820;37.574;2023-12-22T05:08:25;96331.03;;;17.58;45.06
75447;BME280;64024;55.820;37.574;2023-12-22T05:10:51;96333.03;;;17.70;44.92
75447;BME280;64024;55.820;37.574;2023-12-22T05:13:16;96330.78;;;17.80;44.89
75447;BME280;64024;55.820;37.574;2023-12-22T05:15:42;96332.00;;;17.92;44.55
75447;BME280;64024;55.820;37.574;2023-12-22T05:18:08;96329.81;;;18.06;44.48
75447;BME280;64024;55.820;37.574;2023-12-22T05:20:35;96329.41;;;18.16;44.55
75447;BME280;64024;55.820;37.574;2023-12-22T05:23:01;96322.09;;;18.25;44.28
75447;BME280;64024;55.820;37.574;2023-12-22T05:25:27;96326.13;;;18.31;44.14
75447;BME280;64024;55.820;37.574;2023-12-22T05:27:52;96334.13;;;18.40;43.95
75447;BME280;64024;55.820;37.574;2023-12-22T05:30:18;96328.53;;;18.45;43.78
75447;BME280;64024;55.820;37.574;2023-12-22T05:32:44;96329.91;;;18.51;43.65
75447;BME280;64024;55.820;37.574;2023-12-22T05:35:10;96333.53;;;18.55;43.29
75447;BME280;64024;55.820;37.574;2023-12-22T05:37:36;96326.38;;;18.59;43.37
75447;BME280;64024;55.820;37.574;2023-12-22T05:40:03;96328.72;;;18.61;43.24
75447;BME280;64024;55.820;37.574;2023-12-22T05:42:29;96333.78;;;18.62;43.23
75447;BME280;64024;55.820;37.574;2023-12-22T05:44:55;96332.66;;;18.63;43.28
75447;BME280;64024;55.820;37.574;2023-12-22T05:47:20;96332.66;;;18.63;43.11
75447;BME280;64024;55.820;37.574;2023-12-22T05:49:46;96323.03;;;18.62;43.25
75447;BME280;64024;55.820;37.574;2023-12-22T05:52:12;96330.28;;;18.62;43.14
75447;BME280;64024;55.820;37.574;2023-12-22T05:54:38;96331.41;;;18.61;43.17
75447;BME280;64024;55.820;37.574;2023-12-22T05:57:04;96337.91;;;18.60;43.01
75447;BME280;64024;55.820;37.574;2023-12-22T05:59:32;96325.13;;;18.57;42.97
75447;BME280;64024;55.820;37.574;2023-12-22T06:02:00;96328.16;;;18.55;43.00
75447;BME280;64024;55.820;37.574;2023-12-22T06:04:26;96335.75;;;18.53;43.12
75447;BME280;64024;55.820;37.574;2023-12-22T06:06:52;96337.22;;;18.51;43.06
75447;BME280;64024;55.820;37.574;2023-12-22T06:09:19;96333.25;;;18.48;43.09
75447;BME280;64024;55.820;37.574;2023-12-22T06:11:46;96333.91;;;18.45;43.34
75447;BME280;64024;55.820;37.574;2023-12-22T06:14:12;96331.91;;;18.42;43.38
75447;BME280;64024;55.820;37.574;2023-12-22T06:16:38;96332.22;;;18.41;43.60
75447;BME280;64024;55.820;37.574;2023-12-22T06:19:05;96329.41;;;18.37;43.49
75447;BME280;64024;55.820;37.574;2023-12-22T06:21:31;96328.97;;;18.35;43.72
75447;BME280;64024;55.820;37.574;2023-12-22T06:24:00;96340.34;;;18.32;43.76
75447;BME280;64024;55.820;37.574;2023-12-22T06:26:26;96347.50;;;18.28;43.62
75447;BME280;64024;55.820;37.574;2023-12-22T06:28:51;96337.88;;;18.27;43.88
75447;BME280;64024;55.820;37.574;2023-12-22T06:31:21;96332.38;;;18.23;44.11
75447;BME280;64024;55.820;37.574;2023-12-22T06:33:48;96338.09;;;18.22;44.02
75447;BME280;64024;55.820;37.574;2023-12-22T06:36:22;96345.69;;;18.20;43.96
75447;BME280;64024;55.820;37.574;2023-12-22T06:38:52;96349.34;;;18.15;43.83
75447;BME280;64024;55.820;37.574;2023-12-22T06:41:21;96353.50;;;18.12;43.81
75447;BME280;64024;55.820;37.574;2023-12-22T06:43:47;96343.38;;;18.09;43.93
75447;BME280;64024;55.820;37.574;2023-12-22T06:46:21;96339.78;;;18.05;43.97
75447;BME280;64024;55.820;37.574;2023-12-22T06:48:48;96340.09;;;18.04;43.90
75447;BME280;64024;55.820;37.574;2023-12-22T06:53:52;96347.56;;;17.98;43.88
75447;BME280;64024;55.820;37.574;2023-12-22T06:56:21;96348.22;;;17.95;43.94
75447;BME280;64024;55.820;37.574;2023-12-22T06:58:49;96346.97;;;17.93;43.91
75447;BME280;64024;55.820;37.574;2023-12-22T07:01:23;96354.56;;;17.91;44.06
75447;BME280;64024;55.820;37.574;2023-12-22T07:03:50;96356.81;;;17.88;44.03
75447;BME280;64024;55.820;37.574;2023-12-22T07:06:17;96360.91;;;17.86;44.01
75447;BME280;64024;55.820;37.574;2023-12-22T07:08:43;96345.44;;;17.83;44.10
75447;BME280;64024;55.820;37.574;2023-12-22T07:11:10;96355.75;;;17.81;44.00
75447;BME280;64024;55.820;37.574;2023-12-22T07:13:37;96347.22;;;17.79;44.16
75447;BME280;64024;55.820;37.574;2023-12-22T07:16:04;96362.88;;;17.77;44.13
75447;BME280;64024;55.820;37.574;2023-12-22T07:18:31;96362.41;;;17.75;44.07
75447;BME280;64024;55.820;37.574;2023-12-22T07:21:00;96359.25;;;17.73;44.23
75447;BME280;64024;55.820;37.574;2023-12-22T07:23:26;96368.41;;;17.72;44.15
75447;BME280;64024;55.820;37.574;2023-12-22T07:25:53;96355.63;;;17.69;44.32
75447;BME280;64024;55.820;37.574;2023-12-22T07:28:19;96348.69;;;17.68;44.24
75447;BME280;64024;55.820;37.574;2023-12-22T07:30:45;96353.59;;;17.65;44.39
75447;BME280;64024;55.820;37.574;2023-12-22T07:33:11;96344.75;;;17.65;44.22
75447;BME280;64024;55.820;37.574;2023-12-22T07:35:37;96355.81;;;17.63;44.66
75447;BME280;64024;55.820;37.574;2023-12-22T07:38:03;96354.25;;;17.62;44.34
75447;BME280;64024;55.820;37.574;2023-12-22T07:40:29;96357.56;;;17.59;44.46
75447;BME280;64024;55.820;37.574;2023-12-22T07:42:59;96349.03;;;17.57;44.45
75447;BME280;64024;55.820;37.574;2023-12-22T07:45:26;96346.34;;;17.57;44.40
75447;BME280;64024;55.820;37.574;2023-12-22T07:47:52;96345.91;;;17.55;44.40
75447;BME280;64024;55.820;37.574;2023-12-22T07:50:18;96342.44;;;17.55;44.56
75447;BME280;64024;55.820;37.574;2023-12-22T07:52:44;96330.91;;;17.54;44.55
75447;BME280;64024;55.820;37.574;2023-12-22T07:55:10;96326.97;;;17.52;44.58
75447;BME280;64024;55.820;37.574;2023-12-22T07:57:39;96319.25;;;17.50;44.76
75447;BME280;64024;55.820;37.574;2023-12-22T08:00:05;96320.34;;;17.49;44.61
75447;BME280;64024;55.820;37.574;2023-12-22T08:02:31;96333.75;;;17.49;44.73
75447;BME280;64024;55.820;37.574;2023-12-22T08:04:57;96351.00;;;17.48;44.16
75447;BME280;64024;55.820;37.574;2023-12-22T08:07:23;96340.88;;;17.45;43.57
75447;BME280;64024;55.820;37.574;2023-12-22T08:09:49;96337.94;;;17.38;42.86
75447;BME280;64024;55.820;37.574;2023-12-22T08:12:15;96330.72;;;17.30;42.34
75447;BME280;64024;55.820;37.574;2023-12-22T08:14:41;96329.94;;;17.21;42.17
75447;BME280;64024;55.820;37.574;2023-12-22T08:17:07;96322.25;;;17.10;41.95
75447;BME280;64024;55.820;37.574;2023-12-22T08:19:36;96312.66;;;17.01;41.93
75447;BME280;64024;55.820;37.574;2023-12-22T08:22:03;96308.13;;;16.93;41.68
75447;BME280;64024;55.820;37.574;2023-12-22T08:24:29;96318.88;;;16.84;41.54
75447;BME280;64024;55.820;37.574;2023-12-22T08:26:55;96318.56;;;16.77;41.17
75447;BME280;64024;55.820;37.574;2023-12-22T08:29:21;96316.19;;;16.75;40.60
75447;BME280;64024;55.820;37.574;2023-12-22T08:31:47;96299.31;;;16.75;40.07
75447;BME280;64024;55.820;37.574;2023-12-22T08:34:13;96315.09;;;16.76;39.44
75447;BME280;64024;55.820;37.574;2023-12-22T08:36:38;96303.72;;;16.79;39.11
75447;BME280;64024;55.820;37.574;2023-12-22T08:39:04;96313.50;;;16.84;38.79
75447;BME280;64024;55.820;37.574;2023-12-22T08:41:33;96323.59;;;16.87;38.61
75447;BME280;64024;55.820;37.574;2023-12-22T08:44:04;96306.84;;;16.90;38.02
75447;BME280;64024;55.820;37.574;2023-12-22T08:46:30;96311.59;;;16.93;37.73
75447;BME280;64024;55.820;37.574;2023-12-22T08:48:57;96294.84;;;16.96;37.35
75447;BME280;64024;55.820;37.574;2023-12-22T08:51:27;96301.44;;;16.99;37.11
75447;BME280;64024;55.820;37.574;2023-12-22T08:53:53;96293.56;;;17.02;37.03
75447;BME280;64024;55.820;37.574;2023-12-22T08:56:21;96296.38;;;17.06;36.59
75447;BME280;64024;55.820;37.574;2023-12-22T08:58:48;96292.25;;;17.08;36.39
75447;BME280;64024;55.820;37.574;2023-12-22T09:01:16;96290.84;;;17.11;36.01
75447;BME280;64024;55.820;37.574;2023-12-22T09:03:41;96300.44;;;17.12;35.99
75447;BME280;64024;55.820;37.574;2023-12-22T09:06:15;96295.22;;;17.15;35.72
75447;BME280;64024;55.820;37.574;2023-12-22T09:08:41;96312.59;;;17.18;35.46
75447;BME280;64024;55.820;37.574;2023-12-22T09:11:08;96316.50;;;17.21;35.55
75447;BME280;64024;55.820;37.574;2023-12-22T09:13:34;96298.22;;;17.23;35.22
75447;BME280;64024;55.820;37.574;2023-12-22T09:16:01;96311.78;;;17.26;34.85
75447;BME280;64024;55.820;37.574;2023-12-22T09:18:30;96313.00;;;17.29;34.88
75447;BME280;64024;55.820;37.574;2023-12-22T09:20:56;96308.56;;;17.33;34.87
75447;BME280;64024;55.820;37.574;2023-12-22T09:23:23;96308.06;;;17.39;35.00
75447;BME280;64024;55.820;37.574;2023-12-22T09:25:49;96299.97;;;17.48;34.93
75447;BME280;64024;55.820;37.574;2023-12-22T09:28:15;96295.34;;;17.57;35.13
75447;BME280;64024;55.820;37.574;2023-12-22T09:30:41;96283.75;;;17.65;35.07
75447;BME280;64024;55.820;37.574;2023-12-22T09:33:08;96290.97;;;17.74;34.92
75447;BME280;64024;55.820;37.574;2023-12-22T09:35:35;96299.00;;;17.82;34.84
75447;BME280;64024;55.820;37.574;2023-12-22T09:38:01;96289.31;;;17.90;34.40
75447;BME280;64024;55.820;37.574;2023-12-22T09:40:27;96288.47;;;17.98;33.88
75447;BME280;64024;55.820;37.574;2023-12-22T09:42:55;96284.00;;;18.02;33.53
75447;BME280;64024;55.820;37.574;2023-12-22T09:45:23;96283.00;;;18.07;33.41
75447;BME280;64024;55.820;37.574;2023-12-22T09:47:50;96270.50;;;18.11;33.27
75447;BME280;64024;55.820;37.574;2023-12-22T09:50:17;96281.38;;;18.14;32.97
75447;BME280;64024;55.820;37.574;2023-12-22T09:52:43;96276.47;;;18.17;32.86
75447;BME280;64024;55.820;37.574;2023-12-22T09:55:13;96274.69;;;18.21;32.73
75447;BME280;64024;55.820;37.574;2023-12-22T09:57:39;96276.69;;;18.24;32.61
75447;BME280;64024;55.820;37.574;2023-12-22T10:00:09;96278.41;;;18.28;32.45
75447;BME280;64024;55.820;37.574;2023-12-22T10:02:39;96268.56;;;18.32;32.46
75447;BME280;64024;55.820;37.574;2023-12-22T10:05:05;96260.50;;;18.32;32.64
75447;BME280;64024;55.820;37.574;2023-12-22T10:07:31;96273.81;;;18.29;32.92
75447;BME280;64024;55.820;37.574;2023-12-22T10:09:59;96249.81;;;18.24;33.58
75447;BME280;64024;55.820;37.574;2023-12-22T10:12:28;96245.91;;;18.21;34.62
75447;BME280;64024;55.820;37.574;2023-12-22T10:14:56;96232.47;;;18.21;35.43
75447;BME280;64024;55.820;37.574;2023-12-22T10:17:24;96239.06;;;18.24;35.96
75447;BME280;64024;55.820;37.574;2023-12-22T10:19:51;96234.94;;;18.26;36.47
75447;BME280;64024;55.820;37.574;2023-12-22T10:22:18;96229.22;;;18.28;36.85
75447;BME280;64024;55.820;37.574;2023-12-22T10:24:44;96235.06;;;18.30;37.35
75447;BME280;64024;55.820;37.574;2023-12-22T10:27:17;96233.59;;;18.32;37.47
75447;BME280;64024;55.820;37.574;2023-12-22T10:29:56;96222.53;;;18.34;37.95
75447;BME280;64024;55.820;37.574;2023-12-22T10:32:22;96229.13;;;18.36;38.05
75447;BME280;64024;55.820;37.574;2023-12-22T10:34:51;96227.22;;;18.37;38.50
75447;BME280;64024;55.820;37.574;2023-12-22T10:37:17;96225.34;;;18.37;38.75
75447;BME280;64024;55.820;37.574;2023-12-22T10:39:44;96216.16;;;18.38;39.15
75447;BME280;64024;55.820;37.574;2023-12-22T10:42:14;96210.44;;;18.40;39.20
75447;BME280;64024;55.820;37.574;2023-12-22T10:44:41;96213.91;;;18.41;39.44
75447;BME280;64024;55.820;37.574;2023-12-22T10:47:08;96205.84;;;18.41;39.72
75447;BME280;64024;55.820;37.574;2023-12-22T10:49:36;96212.00;;;18.41;40.01
75447;BME280;64024;55.820;37.574;2023-12-22T10:52:02;96198.56;;;18.41;40.08
75447;BME280;64024;55.820;37.574;2023-12-22T10:54:30;96197.78;;;18.41;40.27
75447;BME280;64024;55.820;37.574;2023-12-22T10:56:59;96201.25;;;18.41;40.47
75447;BME280;64024;55.820;37.574;2023-12-22T10:59:28;96200.94;;;18.43;40.80
75447;BME280;64024;55.820;37.574;2023-12-22T11:01:58;96189.06;;;18.44;40.39
75447;BME280;64024;55.820;37.574;2023-12-22T11:04:30;96197.59;;;18.46;40.70
75447;BME280;64024;55.820;37.574;2023-12-22T11:07:03;96191.09;;;18.47;40.48
75447;BME280;64024;55.820;37.574;2023-12-22T11:09:31;96198.38;;;18.46;40.51
75447;BME280;64024;55.820;37.574;2023-12-22T11:11:58;96200.28;;;18.46;40.67
75447;BME280;64024;55.820;37.574;2023-12-22T11:14:27;96195.22;;;18.44;40.95
75447;BME280;64024;55.820;37.574;2023-12-22T11:16:54;96196.34;;;18.43;40.85
75447;BME280;64024;55.820;37.574;2023-12-22T11:19:20;96194.78;;;18.42;40.83
75447;BME280;64024;55.820;37.574;2023-12-22T11:21:50;96189.72;;;18.41;41.14
75447;BME280;64024;55.820;37.574;2023-12-22T11:24:16;96197.34;;;18.38;41.08
75447;BME280;64024;55.820;37.574;2023-12-22T11:26:45;96192.28;;;18.37;41.21
75447;BME280;64024;55.820;37.574;2023-12-22T11:29:14;96193.41;;;18.36;41.31
75447;BME280;64024;55.820;37.574;2023-12-22T11:31:41;96187.59;;;18.34;41.29
75447;BME280;64024;55.820;37.574;2023-12-22T11:34:07;96183.31;;;18.33;41.41
75447;BME280;64024;55.820;37.574;2023-12-22T11:36:35;96184.13;;;18.33;41.56
75447;BME280;64024;55.820;37.574;2023-12-22T11:39:03;96176.38;;;18.32;41.54
75447;BME280;64024;55.820;37.574;2023-12-22T11:41:32;96175.59;;;18.31;41.66
75447;BME280;64024;55.820;37.574;2023-12-22T11:44:00;96179.41;;;18.30;41.75
75447;BME280;64024;55.820;37.574;2023-12-22T11:46:27;96168.19;;;18.28;41.72
75447;BME280;64024;55.820;37.574;2023-12-22T11:48:55;96180.84;;;18.28;41.83
75447;BME280;64024;55.820;37.574;2023-12-22T11:51:21;96175.47;;;18.28;41.84
75447;BME280;64024;55.820;37.574;2023-12-22T11:53:47;96166.63;;;18.27;42.05
75447;BME280;64024;55.820;37.574;2023-12-22T11:56:13;96173.13;;;18.26;41.98
75447;BME280;64024;55.820;37.574;2023-12-22T11:58:46;96173.91;;;18.27;42.11
75447;BME280;64024;55.820;37.574;2023-12-22T12:01:25;96173.13;;;18.26;42.18
75447;BME280;64024;55.820;37.574;2023-12-22T12:04:01;96183.09;;;18.26;42.24
75447;BME280;64024;55.820;37.574;2023-12-22T12:08:56;96175.34;;;18.24;42.07
75447;BME280;64024;55.820;37.574;2023-12-22T12:11:23;96174.56;;;18.24;42.07
75447;BME280;64024;55.820;37.574;2023-12-22T12:13:50;96176.81;;;18.22;42.01
75447;BME280;64024;55.820;37.574;2023-12-22T12:16:20;96170.66;;;18.21;42.12
75447;BME280;64024;55.820;37.574;2023-12-22T12:18:50;96194.25;;;18.16;41.08
75447;BME280;64024;55.820;37.574;2023-12-22T12:21:18;96204.28;;;18.06;40.18
75447;BME280;64024;55.820;37.574;2023-12-22T12:23:45;96196.19;;;17.94;39.20
75447;BME280;64024;55.820;37.574;2023-12-22T12:26:11;96180.78;;;17.82;38.49
75447;BME280;64024;55.820;37.574;2023-12-22T12:28:37;96202.88;;;17.67;37.91
75447;BME280;64024;55.820;37.574;2023-12-22T12:31:08;96214.19;;;17.52;37.18
75447;BME280;64024;55.820;37.574;2023-12-22T12:33:39;96185.22;;;17.36;37.33
75447;BME280;64024;55.820;37.574;2023-12-22T12:36:06;96197.78;;;17.24;37.40
75447;BME280;64024;55.820;37.574;2023-12-22T12:39:06;96148.63;;;17.11;37.14
75447;BME280;64024;55.820;37.574;2023-12-22T12:41:41;96153.84;;;17.07;37.58
75447;BME280;64024;55.820;37.574;2023-12-22T12:44:10;96142.34;;;17.07;37.93
75447;BME280;64024;55.820;37.574;2023-12-22T12:46:37;96142.47;;;17.10;38.17
75447;BME280;64024;55.820;37.574;2023-12-22T12:49:08;96138.81;;;17.15;38.63
75447;BME280;64024;55.820;37.574;2023-12-22T12:51:42;96141.00;;;17.22;38.87
75447;BME280;64024;55.820;37.574;2023-12-22T12:54:10;96122.44;;;17.29;39.03